Time;durP1;ratioP1;P1;durP2;ratioP2;P2;SDS_P1;SDS_P2;PMS_P1;PMS_P2;Temp;Humidity;BMP_temperature;BMP_pressure;BME280_temperature;BME280_humidity;BME280_pressure;Samples;Min_cycle;Max_cycle;Signal;HPM_P1;HPM_P2
2024/01/14 00:00:37;;;;;;;11.40;10.60;;;21.70;44.60;;;;;;5012036;28;20508;-63
2024/01/14 00:03:04;;;;;;;11.10;10.67;;;21.70;44.60;;;;;;4996448;28;20461;-63
2024/01/14 00:05:31;;;;;;;12.07;11.57;;;21.70;44.60;;;;;;5011914;28;20488;-63
2024/01/14 00:07:58;;;;;;;11.23;10.83;;;21.70;44.60;;;;;;5010226;28;20490;-63
2024/01/14 00:10:25;;;;;;;10.93;10.33;;;21.70;44.70;;;;;;5012012;28;20489;-63
2024/01/14 00:12:52;;;;;;;10.80;10.40;;;21.60;44.70;;;;;;5011755;28;20470;-63
2024/01/14 00:15:20;;;;;;;11.30;10.80;;;21.60;44.70;;;;;;5011908;28;20853;-63
2024/01/14 00:17:47;;;;;;;10.80;10.30;;;21.60;44.70;;;;;;5010347;28;20500;-63
2024/01/14 00:20:14;;;;;;;10.90;10.40;;;21.60;44.70;;;;;;5010732;28;20480;-63
2024/01/14 00:22:41;;;;;;;10.87;10.43;;;21.50;44.70;;;;;;5011787;28;20496;-63
2024/01/14 00:25:09;;;;;;;10.70;10.20;;;21.50;44.80;;;;;;5015571;28;20508;-63
2024/01/14 00:27:36;;;;;;;10.80;10.40;;;21.50;45.30;;;;;;5014850;28;20502;-62
2024/01/14 00:30:03;;;;;;;10.60;10.20;;;21.50;44.90;;;;;;4999779;28;20941;-63
2024/01/14 00:32:31;;;;;;;11.13;10.63;;;21.50;44.90;;;;;;5015773;28;20446;-63
2024/01/14 00:34:58;;;;;;;10.20;9.80;;;21.50;44.90;;;;;;5015569;28;20926;-62
2024/01/14 00:37:26;;;;;;;10.33;10.03;;;21.40;44.80;;;;;;5015567;28;20900;-63
2024/01/14 00:39:52;;;;;;;11.83;11.13;;;21.40;44.90;;;;;;5006730;28;20991;-63
2024/01/14 00:42:19;;;;;;;10.60;10.20;;;21.40;44.90;;;;;;5015489;28;20498;-63
2024/01/14 00:44:46;;;;;;;10.50;10.10;;;21.40;44.90;;;;;;5015320;28;20442;-63
2024/01/14 00:47:13;;;;;;;11.10;10.60;;;21.40;44.90;;;;;;5015377;28;20500;-63
2024/01/14 00:49:41;;;;;;;11.00;10.60;;;21.40;45.00;;;;;;5007462;28;20453;-62
2024/01/14 00:52:08;;;;;;;11.10;10.60;;;21.30;45.00;;;;;;5015430;28;20465;-63
2024/01/14 00:54:35;;;;;;;10.50;10.20;;;21.30;45.00;;;;;;5015342;28;20484;-63
2024/01/14 00:57:03;;;;;;;10.37;10.07;;;21.30;45.00;;;;;;5015088;28;20458;-63
2024/01/14 00:59:30;;;;;;;9.70;9.30;;;21.30;45.00;;;;;;4999829;28;20954;-63
2024/01/14 01:01:57;;;;;;;10.50;10.10;;;21.30;45.00;;;;;;5014207;28;20473;-63
2024/01/14 01:04:24;;;;;;;10.90;10.50;;;21.30;45.00;;;;;;5015068;28;20501;-63
2024/01/14 01:06:52;;;;;;;11.07;10.57;;;21.30;44.90;;;;;;5015081;28;21019;-63
2024/01/14 01:09:19;;;;;;;10.00;9.50;;;21.30;45.00;;;;;;5006532;28;20461;-63
2024/01/14 01:11:46;;;;;;;9.93;9.53;;;21.20;44.90;;;;;;5014810;28;20446;-62
2024/01/14 01:14:14;;;;;;;9.87;9.50;;;21.20;45.00;;;;;;5015018;28;20789;-63
2024/01/14 01:16:41;;;;;;;10.50;10.00;;;21.20;45.00;;;;;;5014836;28;20528;-63
2024/01/14 01:19:07;;;;;;;10.30;9.80;;;21.20;45.10;;;;;;5006633;28;20497;-63
2024/01/14 01:21:34;;;;;;;10.17;9.77;;;21.20;45.60;;;;;;5014776;28;20476;-63
2024/01/14 01:24:03;;;;;;;9.13;8.83;;;21.20;45.20;;;;;;5014608;28;20480;-63
2024/01/14 01:26:30;;;;;;;10.20;9.80;;;21.20;45.20;;;;;;5007275;28;20507;-63
2024/01/14 01:28:57;;;;;;;10.07;9.57;;;21.20;45.20;;;;;;5012655;28;20549;-63
2024/01/14 01:31:24;;;;;;;10.77;10.03;;;21.20;45.20;;;;;;5014498;28;20842;-62
2024/01/14 01:33:51;;;;;;;11.80;11.30;;;21.20;45.30;;;;;;5014430;28;20449;-63
2024/01/14 01:36:18;;;;;;;11.00;10.50;;;21.20;45.40;;;;;;5011341;28;20496;-63
2024/01/14 01:38:45;;;;;;;10.80;10.30;;;21.20;45.30;;;;;;5011473;28;20497;-63
2024/01/14 01:41:13;;;;;;;10.67;10.27;;;21.20;45.30;;;;;;5014397;28;20480;-63
2024/01/14 01:43:40;;;;;;;11.20;10.70;;;21.10;45.30;;;;;;5014676;28;20884;-62
2024/01/14 01:46:08;;;;;;;9.97;9.60;;;21.10;45.30;;;;;;4998335;28;20532;-63
2024/01/14 01:48:35;;;;;;;9.97;9.57;;;21.10;45.30;;;;;;5005876;28;20544;-63
2024/01/14 01:51:02;;;;;;;9.80;9.47;;;21.10;45.30;;;;;;5014077;28;20823;-63
2024/01/14 01:53:30;;;;;;;10.70;10.20;;;21.10;45.30;;;;;;5014290;28;20474;-63
2024/01/14 01:55:57;;;;;;;10.13;9.63;;;21.10;45.30;;;;;;5011556;28;20442;-62
2024/01/14 01:58:25;;;;;;;10.23;9.73;;;21.10;45.30;;;;;;5014167;28;20505;-63
2024/01/14 02:00:52;;;;;;;10.50;10.00;;;21.10;45.40;;;;;;5013972;28;20470;-62
2024/01/14 02:03:20;;;;;;;10.10;9.70;;;21.10;45.40;;;;;;5014055;28;20532;-64
2024/01/14 02:05:49;;;;;;;10.30;9.90;;;21.10;45.40;;;;;;5011336;28;21023;-63
2024/01/14 02:08:16;;;;;;;10.67;10.17;;;21.10;45.40;;;;;;4997047;28;20470;-62
2024/01/14 02:10:43;;;;;;;10.30;9.90;;;21.10;45.50;;;;;;5013861;28;20932;-63
2024/01/14 02:13:10;;;;;;;11.03;10.63;;;21.00;45.40;;;;;;5013982;28;20478;-63
2024/01/14 02:15:38;;;;;;;11.23;10.80;;;21.00;45.40;;;;;;5011876;28;20962;-62
2024/01/14 02:18:06;;;;;;;11.27;10.80;;;21.00;45.40;;;;;;5013676;28;20497;-62
2024/01/14 02:20:32;;;;;;;10.53;10.13;;;21.00;45.50;;;;;;5013689;28;20477;-62
2024/01/14 02:23:02;;;;;;;10.77;10.37;;;21.00;45.50;;;;;;5013445;28;20478;-62
2024/01/14 02:25:31;;;;;;;10.37;9.97;;;21.00;45.50;;;;;;5005957;28;20485;-62
2024/01/14 02:27:58;;;;;;;10.43;10.03;;;21.00;45.50;;;;;;4996073;28;20469;-63
2024/01/14 02:30:25;;;;;;;10.03;9.63;;;21.00;45.50;;;;;;5013481;28;20502;-62
2024/01/14 02:32:54;;;;;;;10.10;9.70;;;21.00;45.50;;;;;;5013233;28;20474;-62
2024/01/14 02:35:21;;;;;;;10.43;10.03;;;21.00;45.60;;;;;;5012042;28;20438;-63
2024/01/14 02:37:48;;;;;;;11.20;10.70;;;21.00;45.50;;;;;;5013171;28;20498;-62
2024/01/14 02:40:16;;;;;;;10.37;9.97;;;21.00;45.60;;;;;;5013359;28;20442;-62
2024/01/14 02:42:44;;;;;;;10.53;10.10;;;21.00;45.60;;;;;;5013553;28;20442;-63
2024/01/14 02:45:11;;;;;;;10.87;10.37;;;21.00;45.60;;;;;;4996916;28;20877;-63
2024/01/14 02:47:38;;;;;;;12.03;11.43;;;20.90;45.50;;;;;;5011951;28;20482;-62
2024/01/14 02:50:06;;;;;;;12.00;11.40;;;20.90;45.50;;;;;;5013069;28;20462;-63
2024/01/14 02:52:33;;;;;;;10.93;10.43;;;20.90;45.50;;;;;;5013208;28;20453;-62
2024/01/14 02:55:00;;;;;;;11.23;10.73;;;20.90;45.50;;;;;;5012199;28;20476;-63
2024/01/14 02:57:27;;;;;;;10.67;10.10;;;20.90;45.50;;;;;;5012896;28;21008;-62
2024/01/14 02:59:55;;;;;;;10.10;9.70;;;20.90;45.60;;;;;;5012946;28;20949;-62
2024/01/14 03:02:22;;;;;;;10.90;10.50;;;20.90;45.50;;;;;;5012956;28;20478;-62
2024/01/14 03:04:49;;;;;;;11.10;10.70;;;20.90;45.50;;;;;;5011339;28;20477;-62
2024/01/14 03:07:16;;;;;;;12.50;11.90;;;20.90;45.50;;;;;;5005580;28;20510;-63
2024/01/14 03:09:43;;;;;;;11.30;10.90;;;20.90;45.50;;;;;;5012796;28;20473;-62
2024/01/14 03:12:10;;;;;;;11.53;11.03;;;20.90;45.50;;;;;;5012732;28;20481;-63
2024/01/14 03:14:36;;;;;;;12.30;11.60;;;20.90;45.50;;;;;;5012977;28;20470;-63
2024/01/14 03:17:05;;;;;;;11.30;10.80;;;20.90;45.40;;;;;;5003709;28;20481;-63
2024/01/14 03:19:32;;;;;;;11.70;11.10;;;20.90;45.60;;;;;;5012761;28;20946;-62
2024/01/14 03:21:59;;;;;;;12.30;11.80;;;20.90;45.50;;;;;;5012514;28;21041;-62
2024/01/14 03:24:26;;;;;;;11.07;10.67;;;20.80;45.50;;;;;;5012870;28;21225;-62
2024/01/14 03:26:54;;;;;;;11.50;10.93;;;20.90;46.10;;;;;;4996655;28;20516;-62
2024/01/14 03:29:21;;;;;;;11.03;10.63;;;20.90;45.50;;;;;;5012470;28;20462;-62
2024/01/14 03:31:48;;;;;;;11.77;11.17;;;20.80;45.40;;;;;;5012406;28;20477;-62
2024/01/14 03:34:16;;;;;;;12.20;11.70;;;20.80;45.40;;;;;;5002731;28;20507;-62
2024/01/14 03:36:43;;;;;;;11.00;10.50;;;20.80;45.40;;;;;;5008627;28;20477;-63
2024/01/14 03:39:10;;;;;;;10.30;9.90;;;20.90;45.50;;;;;;5012227;28;20498;-63
2024/01/14 03:41:37;;;;;;;11.47;10.97;;;20.80;45.40;;;;;;5003125;28;20479;-62
2024/01/14 03:44:04;;;;;;;11.37;10.67;;;20.80;45.40;;;;;;5011302;28;20478;-62
2024/01/14 03:46:31;;;;;;;11.37;10.77;;;20.80;45.50;;;;;;5012117;28;20516;-62
2024/01/14 03:48:58;;;;;;;10.80;10.40;;;20.80;45.50;;;;;;5011960;28;20470;-62
2024/01/14 03:51:26;;;;;;;10.80;10.40;;;20.80;45.40;;;;;;5005869;28;20501;-62
2024/01/14 03:53:53;;;;;;;10.93;10.33;;;20.80;45.40;;;;;;5009697;28;20486;-62
2024/01/14 03:56:20;;;;;;;10.90;10.40;;;20.80;45.40;;;;;;5012097;28;20525;-62
2024/01/14 03:58:47;;;;;;;10.53;10.13;;;20.80;45.40;;;;;;5011631;28;20505;-62
2024/01/14 04:01:17;;;;;;;10.80;10.30;;;20.80;45.50;;;;;;5005541;28;20481;-63
2024/01/14 04:03:44;;;;;;;10.83;10.40;;;20.80;45.40;;;;;;5011983;28;20815;-62
2024/01/14 04:06:11;;;;;;;11.53;10.93;;;20.80;45.50;;;;;;4995622;28;20568;-62
2024/01/14 04:08:39;;;;;;;11.50;10.53;;;20.80;45.50;;;;;;5011886;28;20490;-62
2024/01/14 04:11:06;;;;;;;9.77;9.37;;;20.80;45.60;;;;;;5005775;28;20542;-62
2024/01/14 04:13:33;;;;;;;11.23;10.53;;;20.80;45.50;;;;;;5011912;28;20446;-62
2024/01/14 04:16:00;;;;;;;10.10;9.70;;;20.80;45.50;;;;;;5011702;28;20474;-63
2024/01/14 04:18:29;;;;;;;10.37;9.77;;;20.80;45.50;;;;;;5011833;28;20493;-62
2024/01/14 04:20:55;;;;;;;11.43;10.83;;;20.80;45.60;;;;;;5006501;28;20449;-62
2024/01/14 04:23:22;;;;;;;10.93;10.47;;;20.80;45.60;;;;;;5002475;28;20485;-63
2024/01/14 04:25:51;;;;;;;11.03;10.53;;;20.80;45.50;;;;;;5011526;28;21057;-62
2024/01/14 04:28:17;;;;;;;11.27;10.77;;;20.80;45.60;;;;;;5011791;28;20496;-62
2024/01/14 04:30:44;;;;;;;12.47;11.87;;;20.80;45.60;;;;;;5011915;28;20477;-62
2024/01/14 04:33:12;;;;;;;11.73;11.23;;;20.80;45.60;;;;;;5002198;28;20469;-62
2024/01/14 04:35:39;;;;;;;9.60;9.20;;;20.70;45.50;;;;;;5011609;28;20484;-62
2024/01/14 04:38:05;;;;;;;10.90;10.47;;;20.70;45.60;;;;;;5011409;28;21011;-62
2024/01/14 04:40:32;;;;;;;10.43;10.03;;;20.70;45.70;;;;;;5008929;28;20496;-63
2024/01/14 04:43:01;;;;;;;10.50;10.00;;;20.70;45.60;;;;;;5011644;28;20481;-62
2024/01/14 04:45:27;;;;;;;10.53;10.00;;;20.70;45.70;;;;;;5011512;28;20473;-62
2024/01/14 04:47:54;;;;;;;11.83;10.97;;;20.70;45.60;;;;;;5011224;28;20516;-62
2024/01/14 04:50:21;;;;;;;10.93;10.50;;;20.70;45.60;;;;;;5008990;28;20485;-62
2024/01/14 04:52:48;;;;;;;11.80;11.20;;;20.70;45.60;;;;;;5011520;28;20473;-62
2024/01/14 04:55:15;;;;;;;11.10;10.70;;;20.80;45.60;;;;;;4995654;28;20478;-63
2024/01/14 04:57:42;;;;;;;10.67;10.27;;;20.70;45.50;;;;;;5011539;28;20497;-63
2024/01/14 05:00:12;;;;;;;10.27;9.87;;;20.70;45.70;;;;;;5011460;28;20466;-62
2024/01/14 05:02:39;;;;;;;10.40;10.00;;;20.70;45.60;;;;;;5003412;28;20443;-63
2024/01/14 05:05:06;;;;;;;9.97;9.57;;;20.70;45.70;;;;;;5006803;28;20496;-62
2024/01/14 05:07:33;;;;;;;10.53;10.07;;;20.70;45.70;;;;;;5011557;28;20524;-63
2024/01/14 05:10:00;;;;;;;11.30;10.53;;;20.70;45.80;;;;;;5011647;28;20477;-62
2024/01/14 05:12:27;;;;;;;10.97;10.57;;;20.70;45.80;;;;;;5015012;28;20469;-63
2024/01/14 05:14:53;;;;;;;10.93;10.50;;;20.70;45.70;;;;;;5012496;28;20476;-62
2024/01/14 05:17:22;;;;;;;10.83;10.40;;;20.70;45.70;;;;;;5014961;28;20477;-62
2024/01/14 05:19:49;;;;;;;10.90;10.30;;;20.70;45.60;;;;;;5014862;28;20481;-62
2024/01/14 05:22:15;;;;;;;10.50;9.90;;;20.70;45.60;;;;;;4999012;28;20466;-62
2024/01/14 05:24:43;;;;;;;10.87;10.47;;;20.70;45.50;;;;;;5014801;28;20473;-62
2024/01/14 05:27:11;;;;;;;10.47;10.07;;;20.70;45.60;;;;;;5010720;28;21305;-62
2024/01/14 05:29:40;;;;;;;11.33;10.83;;;20.70;45.60;;;;;;5014716;28;20469;-62
2024/01/14 05:32:08;;;;;;;10.63;10.13;;;20.70;45.60;;;;;;5014432;28;20470;-63
2024/01/14 05:34:36;;;;;;;10.93;10.43;;;20.70;45.50;;;;;;5014542;28;20450;-62
2024/01/14 05:37:03;;;;;;;12.47;11.87;;;20.70;45.50;;;;;;5014575;28;20472;-62
2024/01/14 05:39:31;;;;;;;11.37;10.97;;;20.70;45.50;;;;;;5001030;28;20965;-62
2024/01/14 05:41:58;;;;;;;11.30;10.80;;;20.70;45.50;;;;;;5009625;28;20438;-62
2024/01/14 05:44:25;;;;;;;11.23;10.67;;;20.70;45.60;;;;;;5014525;28;20466;-62
2024/01/14 05:46:52;;;;;;;11.17;10.67;;;20.70;45.60;;;;;;5014649;28;20478;-63
2024/01/14 05:49:19;;;;;;;11.00;10.60;;;20.70;45.60;;;;;;5012850;28;21238;-61
2024/01/14 05:51:48;;;;;;;10.40;10.10;;;20.70;45.50;;;;;;5010219;28;20473;-63
2024/01/14 05:54:15;;;;;;;11.50;11.00;;;20.70;45.60;;;;;;5014174;28;20445;-63
2024/01/14 05:56:42;;;;;;;9.80;9.40;;;20.70;45.60;;;;;;5014366;28;20466;-63
2024/01/14 05:59:09;;;;;;;12.53;12.03;;;20.70;45.50;;;;;;5014141;28;21007;-62
2024/01/14 06:01:36;;;;;;;11.73;11.17;;;20.70;45.50;;;;;;5012358;28;20546;-63
2024/01/14 06:04:03;;;;;;;11.27;10.70;;;20.70;45.60;;;;;;5012430;28;20442;-63
2024/01/14 06:06:30;;;;;;;11.23;10.73;;;20.70;45.50;;;;;;5014260;28;20466;-63
2024/01/14 06:08:59;;;;;;;10.50;10.20;;;20.70;45.50;;;;;;5014013;28;20482;-63
2024/01/14 06:11:25;;;;;;;10.53;10.13;;;20.70;45.50;;;;;;5005443;28;20438;-63
2024/01/14 06:13:52;;;;;;;10.90;10.50;;;20.70;45.50;;;;;;5014095;28;20489;-63
2024/01/14 06:16:19;;;;;;;10.80;10.40;;;20.70;45.50;;;;;;5013974;28;20469;-62
2024/01/14 06:18:46;;;;;;;11.07;10.53;;;20.70;45.40;;;;;;5013727;28;20985;-62
2024/01/14 06:21:13;;;;;;;11.73;11.20;;;20.70;45.40;;;;;;5004944;28;20824;-63
2024/01/14 06:23:41;;;;;;;10.90;10.50;;;20.70;45.40;;;;;;5014059;28;20442;-63
2024/01/14 06:26:16;;;;;;;10.40;10.00;;;20.70;45.30;;;;;;5013622;28;20478;-63
2024/01/14 06:28:43;;;;;;;10.53;10.13;;;20.70;45.50;;;;;;5013695;28;20487;-63
2024/01/14 06:31:10;;;;;;;10.30;9.90;;;20.70;45.70;;;;;;5013811;28;20839;-62
2024/01/14 06:33:37;;;;;;;10.20;9.80;;;20.70;45.70;;;;;;5005501;28;20861;-63
2024/01/14 06:36:06;;;;;;;10.43;10.03;;;20.70;45.70;;;;;;5013744;28;21136;-63
2024/01/14 06:38:33;;;;;;;11.97;10.90;;;20.70;45.70;;;;;;5013487;28;20461;-62
2024/01/14 06:41:00;;;;;;;11.73;11.27;;;20.70;45.70;;;;;;5013532;28;20945;-64
2024/01/14 06:43:29;;;;;;;12.20;11.80;;;20.70;45.80;;;;;;5013766;28;20477;-63
2024/01/14 06:45:56;;;;;;;11.13;10.70;;;20.70;45.80;;;;;;5005337;28;20438;-62
2024/01/14 06:48:23;;;;;;;10.87;10.43;;;20.70;45.80;;;;;;5013066;28;20575;-64
2024/01/14 06:50:51;;;;;;;10.93;10.43;;;20.70;45.80;;;;;;5013479;28;21084;-63
2024/01/14 06:53:18;;;;;;;11.87;11.37;;;20.70;45.80;;;;;;5007295;28;20483;-62
2024/01/14 06:55:45;;;;;;;10.40;9.90;;;20.70;45.70;;;;;;5013410;28;20476;-63
2024/01/14 06:58:12;;;;;;;10.67;10.27;;;20.70;45.70;;;;;;5013029;28;20489;-63
2024/01/14 07:00:40;;;;;;;10.57;10.17;;;20.70;45.70;;;;;;5013271;28;20477;-63
2024/01/14 07:03:07;;;;;;;10.10;9.70;;;20.70;45.80;;;;;;5007218;28;20791;-64
2024/01/14 07:05:34;;;;;;;11.53;11.03;;;20.70;45.80;;;;;;5012925;28;20845;-62
2024/01/14 07:08:01;;;;;;;10.27;9.97;;;20.70;45.80;;;;;;5012603;28;20521;-62
2024/01/14 07:10:27;;;;;;;10.77;10.27;;;20.70;45.80;;;;;;5012895;28;20438;-63
2024/01/14 07:12:54;;;;;;;10.60;10.20;;;20.70;45.80;;;;;;5012880;28;20485;-63
2024/01/14 07:15:21;;;;;;;10.53;10.20;;;20.70;45.70;;;;;;5007766;28;20477;-63
2024/01/14 07:17:50;;;;;;;10.27;9.87;;;20.70;45.60;;;;;;5012571;28;20489;-62
2024/01/14 07:20:17;;;;;;;10.80;10.30;;;20.70;45.70;;;;;;5012560;28;20434;-61
2024/01/14 07:22:44;;;;;;;10.00;9.67;;;20.70;45.70;;;;;;5012751;28;20477;-63
2024/01/14 07:25:10;;;;;;;10.70;10.30;;;20.70;45.70;;;;;;5012514;28;20450;-62
2024/01/14 07:27:37;;;;;;;11.40;10.90;;;20.70;45.70;;;;;;5008193;28;20528;-63
2024/01/14 07:30:05;;;;;;;11.30;10.80;;;20.70;45.70;;;;;;5012406;28;20434;-63
2024/01/14 07:32:32;;;;;;;10.60;10.20;;;20.70;45.70;;;;;;5012333;28;20860;-63
2024/01/14 07:35:00;;;;;;;11.50;11.10;;;20.70;45.70;;;;;;5012047;28;20488;-63
2024/01/14 07:37:30;;;;;;;10.87;10.47;;;20.70;45.70;;;;;;5012364;28;20483;-63
2024/01/14 07:39:57;;;;;;;10.90;10.50;;;20.70;45.60;;;;;;5010142;28;20453;-63
2024/01/14 07:42:24;;;;;;;11.37;10.77;;;20.70;45.60;;;;;;5012518;28;20469;-64
2024/01/14 07:44:51;;;;;;;12.57;11.60;;;20.70;45.70;;;;;;5012241;28;20438;-63
2024/01/14 07:47:18;;;;;;;11.40;10.90;;;20.70;45.70;;;;;;5011676;28;21008;-63
2024/01/14 07:49:48;;;;;;;11.13;10.63;;;20.70;45.70;;;;;;5012375;28;20439;-62
2024/01/14 07:52:16;;;;;;;11.53;11.00;;;20.70;45.60;;;;;;5008470;28;20442;-63
2024/01/14 07:54:43;;;;;;;10.80;10.40;;;20.70;45.60;;;;;;5011983;28;20446;-63
2024/01/14 07:57:11;;;;;;;10.43;10.10;;;20.70;45.70;;;;;;5011833;28;20452;-62
2024/01/14 07:59:38;;;;;;;10.60;10.20;;;20.70;45.60;;;;;;5001834;28;20882;-61
2024/01/14 08:02:05;;;;;;;11.30;10.40;;;20.70;45.60;;;;;;4992477;28;20482;-63
2024/01/14 08:04:32;;;;;;;11.50;11.10;;;20.70;45.60;;;;;;5012118;28;20462;-62
2024/01/14 08:06:58;;;;;;;11.53;10.97;;;20.70;45.60;;;;;;5011719;28;20466;-62
2024/01/14 08:09:27;;;;;;;10.80;10.43;;;20.70;45.50;;;;;;5008012;28;20502;-62
2024/01/14 08:11:53;;;;;;;11.40;10.80;;;20.70;45.70;;;;;;5008055;28;20481;-62
2024/01/14 08:14:20;;;;;;;11.67;11.10;;;20.70;45.90;;;;;;5011701;28;20476;-63
2024/01/14 08:16:47;;;;;;;12.50;12.00;;;20.70;46.00;;;;;;5011950;28;20499;-63
2024/01/14 08:19:14;;;;;;;12.40;11.90;;;20.70;46.00;;;;;;5005599;28;20482;-63
2024/01/14 08:21:43;;;;;;;11.63;11.23;;;20.70;45.90;;;;;;4999987;28;20472;-63
2024/01/14 08:24:10;;;;;;;12.90;12.40;;;20.70;45.90;;;;;;5010054;28;20442;-62
2024/01/14 08:26:44;;;;;;;12.03;11.63;;;20.70;46.00;;;;;;5003715;28;20477;-62
2024/01/14 08:29:12;;;;;;;13.00;11.80;;;20.70;46.00;;;;;;5011656;28;20925;-62
2024/01/14 08:31:40;;;;;;;11.93;11.53;;;20.70;46.00;;;;;;5006816;28;20934;-62
2024/01/14 08:34:07;;;;;;;11.60;11.20;;;20.70;45.90;;;;;;5011507;28;20439;-62
2024/01/14 08:36:35;;;;;;;11.87;11.50;;;20.70;45.90;;;;;;5003987;28;20442;-63
2024/01/14 08:39:01;;;;;;;13.00;12.50;;;20.70;45.80;;;;;;5011659;28;20873;-63
2024/01/14 08:41:28;;;;;;;12.10;11.70;;;20.70;45.90;;;;;;5011585;28;20450;-62
2024/01/14 08:43:59;;;;;;;12.97;12.50;;;20.70;45.90;;;;;;5011551;28;20469;-63
2024/01/14 08:46:26;;;;;;;12.17;11.67;;;20.70;45.90;;;;;;4998021;28;21007;-63
2024/01/14 08:48:53;;;;;;;11.87;11.23;;;20.70;46.60;;;;;;5002909;28;20545;-62
2024/01/14 08:51:20;;;;;;;11.50;11.03;;;20.70;45.90;;;;;;5014227;28;20470;-71
2024/01/14 08:53:47;;;;;;;11.10;10.80;;;20.80;46.00;;;;;;5015077;28;20446;-64
2024/01/14 08:56:14;;;;;;;16.20;15.60;;;20.90;46.20;;;;;;5015398;28;20533;-65
2024/01/14 08:58:41;;;;;;;14.93;14.43;;;20.90;46.00;;;;;;5011607;28;20498;-66
2024/01/14 09:01:09;;;;;;;15.90;15.20;;;21.00;46.30;;;;;;5001574;28;20475;-66
2024/01/14 09:03:36;;;;;;;15.50;14.80;;;21.00;46.10;;;;;;4986050;28;20471;-65
2024/01/14 09:06:03;;;;;;;15.20;14.67;;;21.10;45.90;;;;;;4997518;28;20699;-67
2024/01/14 09:08:30;;;;;;;15.90;15.40;;;21.20;45.70;;;;;;5013765;28;20517;-62
2024/01/14 09:10:57;;;;;;;16.37;15.67;;;21.20;45.60;;;;;;5011458;28;20478;-63
2024/01/14 09:13:24;;;;;;;14.90;14.40;;;21.20;45.70;;;;;;4998861;28;20469;-64
2024/01/14 09:15:50;;;;;;;15.00;14.40;;;21.30;45.40;;;;;;5015119;28;20477;-64
2024/01/14 09:18:19;;;;;;;15.00;14.50;;;21.30;45.30;;;;;;5014599;28;20489;-64
2024/01/14 09:20:46;;;;;;;16.90;16.10;;;21.40;45.20;;;;;;5010763;28;20441;-63
2024/01/14 09:23:13;;;;;;;16.40;15.70;;;21.40;45.20;;;;;;5014751;28;20469;-63
2024/01/14 09:25:39;;;;;;;16.43;15.77;;;21.50;45.10;;;;;;5014677;28;20481;-66
2024/01/14 09:28:06;;;;;;;16.70;16.00;;;21.50;45.00;;;;;;5014393;28;20520;-66
2024/01/14 09:30:33;;;;;;;15.67;15.07;;;21.50;45.10;;;;;;5013182;28;20466;-66
2024/01/14 09:33:01;;;;;;;15.97;15.30;;;21.60;45.10;;;;;;5008058;28;20469;-65
2024/01/14 09:35:29;;;;;;;15.43;14.93;;;21.60;44.80;;;;;;5014571;28;20465;-65
2024/01/14 09:37:56;;;;;;;16.27;15.77;;;21.70;44.90;;;;;;5014471;28;20496;-65
2024/01/14 09:40:23;;;;;;;15.93;15.43;;;21.70;44.60;;;;;;5014478;28;20477;-66
2024/01/14 09:42:51;;;;;;;13.13;12.73;;;21.70;44.60;;;;;;5013465;28;20810;-65
2024/01/14 09:45:20;;;;;;;13.30;12.70;;;21.80;44.70;;;;;;4998854;28;20481;-65
2024/01/14 09:47:47;;;;;;;15.30;14.90;;;21.90;44.30;;;;;;5013998;28;20219;-64
2024/01/14 09:50:17;;;;;;;15.70;15.10;;;22.00;44.20;;;;;;5014162;28;20474;-65
2024/01/14 09:52:46;;;;;;;15.63;14.93;;;22.10;44.10;;;;;;5014289;28;20474;-65
2024/01/14 09:55:13;;;;;;;16.93;16.33;;;22.10;44.00;;;;;;5014101;28;20438;-66
2024/01/14 09:57:47;;;;;;;15.67;15.17;;;22.10;44.00;;;;;;5003497;28;20476;-64
2024/01/14 10:00:16;;;;;;;15.43;14.93;;;22.10;44.00;;;;;;4997158;28;20446;-67
2024/01/14 10:02:43;;;;;;;14.60;14.10;;;22.10;44.10;;;;;;5014174;28;20457;-63
2024/01/14 10:05:12;;;;;;;13.10;12.60;;;22.10;44.20;;;;;;5012939;28;20862;-65
2024/01/14 10:07:39;;;;;;;15.63;15.13;;;22.20;44.10;;;;;;5009214;28;20638;-68
2024/01/14 10:10:09;;;;;;;17.70;17.20;;;22.20;44.00;;;;;;5011408;28;20446;-66
2024/01/14 10:12:37;;;;;;;15.93;15.43;;;22.20;44.30;;;;;;5013970;28;20949;-66
2024/01/14 10:15:04;;;;;;;16.93;16.13;;;22.30;44.10;;;;;;5014059;28;20464;-68
2024/01/14 10:17:33;;;;;;;15.53;14.93;;;22.30;44.00;;;;;;5009086;28;20841;-68
2024/01/14 10:20:00;;;;;;;15.30;14.80;;;22.30;44.20;;;;;;5014133;28;20439;-68
2024/01/14 10:22:26;;;;;;;14.80;14.30;;;22.30;43.50;;;;;;5013825;28;20496;-67
2024/01/14 10:24:54;;;;;;;15.33;14.83;;;22.30;43.40;;;;;;5011753;28;20841;-68
2024/01/14 10:27:23;;;;;;;14.77;14.30;;;22.30;43.40;;;;;;5013461;28;20474;-67
2024/01/14 10:29:51;;;;;;;15.00;14.50;;;22.30;43.40;;;;;;5013811;28;20568;-68
2024/01/14 10:32:22;;;;;;;14.60;14.10;;;22.40;43.50;;;;;;5013515;28;20504;-68
2024/01/14 10:34:49;;;;;;;15.90;15.30;;;22.40;43.40;;;;;;5011655;28;20434;-69
2024/01/14 10:37:16;;;;;;;14.50;14.10;;;22.40;43.50;;;;;;5013190;28;20523;-69
2024/01/14 10:39:43;;;;;;;15.23;14.73;;;22.40;43.40;;;;;;5013486;28;20442;-67
2024/01/14 10:42:10;;;;;;;15.50;14.70;;;22.50;43.50;;;;;;5013126;28;20478;-69
2024/01/14 10:44:39;;;;;;;15.60;15.10;;;22.50;43.40;;;;;;5013288;28;20470;-70
2024/01/14 10:47:10;;;;;;;15.30;14.80;;;22.50;43.30;;;;;;5009441;28;20493;-68
2024/01/14 10:49:42;;;;;;;15.67;15.10;;;22.50;43.10;;;;;;5013272;28;20509;-70
2024/01/14 10:52:11;;;;;;;15.13;14.63;;;22.60;43.20;;;;;;5013113;28;20472;-70
2024/01/14 10:54:46;;;;;;;14.77;14.27;;;22.60;43.10;;;;;;5013138;28;21008;-68
2024/01/14 10:57:23;;;;;;;14.93;14.53;;;22.60;43.00;;;;;;5010266;28;20472;-71
2024/01/14 10:59:57;;;;;;;15.13;14.63;;;22.60;43.80;;;;;;5013305;28;20955;-70
2024/01/14 11:02:29;;;;;;;15.60;15.10;;;22.60;43.40;;;;;;5012784;28;20445;-70
2024/01/14 11:04:57;;;;;;;15.00;14.50;;;22.70;43.50;;;;;;5013037;28;20879;-68
2024/01/14 11:07:24;;;;;;;14.70;14.20;;;22.70;44.30;;;;;;5012316;28;20472;-68
2024/01/14 11:09:53;;;;;;;14.70;14.10;;;22.70;43.40;;;;;;5004737;28;20517;-69
2024/01/14 11:12:26;;;;;;;14.70;14.20;;;22.80;43.60;;;;;;5012680;28;20470;-69
2024/01/14 11:15:02;;;;;;;15.13;14.63;;;22.80;43.40;;;;;;5012909;28;20501;-73
2024/01/14 11:17:45;;;;;;;15.20;14.70;;;22.90;43.50;;;;;;4991481;28;20493;-74
2024/01/14 11:20:16;;;;;;;14.30;13.90;;;22.90;43.30;;;;;;5012552;28;20470;-67
2024/01/14 11:22:44;;;;;;;15.03;14.63;;;23.00;43.10;;;;;;5012534;28;20442;-69
2024/01/14 11:25:16;;;;;;;16.00;15.50;;;23.00;43.10;;;;;;5012530;28;20474;-67
2024/01/14 11:27:43;;;;;;;15.67;15.17;;;23.00;42.90;;;;;;5007786;28;20995;-67
2024/01/14 11:30:17;;;;;;;16.17;15.67;;;23.00;42.60;;;;;;5012415;28;20575;-66
2024/01/14 11:32:44;;;;;;;15.70;15.20;;;23.00;42.70;;;;;;5012480;28;20474;-67
2024/01/14 11:35:11;;;;;;;16.80;16.20;;;22.90;42.80;;;;;;5012552;28;20510;-66
2024/01/14 11:37:44;;;;;;;16.50;16.00;;;22.90;42.80;;;;;;5012336;28;20544;-73
2024/01/14 11:40:16;;;;;;;15.87;15.37;;;22.90;42.90;;;;;;5010249;28;20434;-70
2024/01/14 11:42:49;;;;;;;15.40;14.93;;;22.90;43.10;;;;;;5012532;28;20451;-66
2024/01/14 11:45:36;;;;;;;15.17;14.77;;;22.90;43.10;;;;;;5012523;28;20941;-68
2024/01/14 11:48:04;;;;;;;15.47;15.00;;;23.00;43.20;;;;;;5012213;28;20473;-72
2024/01/14 11:50:32;;;;;;;15.97;15.47;;;23.00;43.00;;;;;;4988279;28;20470;-73
2024/01/14 11:53:01;;;;;;;14.23;13.83;;;23.00;42.90;;;;;;5012351;28;20442;-67
2024/01/14 11:55:30;;;;;;;30.20;29.10;;;23.10;42.90;;;;;;5012160;28;20442;-67
2024/01/14 11:58:08;;;;;;;17.33;16.83;;;23.10;43.20;;;;;;5011841;28;20497;-67
2024/01/14 12:00:38;;;;;;;14.63;14.23;;;23.10;43.00;;;;;;4996918;28;20445;-63
2024/01/14 12:03:07;;;;;;;15.53;15.03;;;23.00;42.80;;;;;;5004156;28;20446;-66
2024/01/14 12:05:34;;;;;;;19.03;18.43;;;23.00;42.90;;;;;;4996839;28;20442;-63
2024/01/14 12:08:02;;;;;;;19.20;18.60;;;23.00;42.90;;;;;;5011746;28;20497;-64
2024/01/14 12:10:32;;;;;;;21.13;20.53;;;23.00;42.90;;;;;;5011584;28;21055;-62
2024/01/14 12:13:01;;;;;;;19.27;18.47;;;23.00;42.60;;;;;;5004711;28;20452;-64
2024/01/14 12:15:28;;;;;;;19.50;18.90;;;23.00;42.70;;;;;;5011868;28;20929;-63
2024/01/14 12:17:59;;;;;;;20.53;19.47;;;22.90;42.70;;;;;;5011511;28;20540;-61
2024/01/14 12:20:27;;;;;;;20.13;19.53;;;22.90;43.40;;;;;;5005269;28;20449;-63
2024/01/14 12:23:02;;;;;;;20.73;20.03;;;22.80;43.10;;;;;;5011743;28;20437;-61
2024/01/14 12:25:30;;;;;;;20.63;20.00;;;22.80;43.10;;;;;;5011714;28;20492;-62
2024/01/14 12:27:57;;;;;;;21.05;20.35;;;22.80;43.10;;;;;;5011482;28;20910;-61
2024/01/14 12:30:29;;;;;;;19.50;18.90;;;22.90;43.30;;;;;;5010264;28;20243;-63